Time;durP1;ratioP1;P1;durP2;ratioP2;P2;SDS_P1;SDS_P2;PMS_P1;PMS_P2;Temp;Humidity;BMP_temperature;BMP_pressure;BME280_temperature;BME280_humidity;BME280_pressure;Samples;Min_cycle;Max_cycle;Signal;HPM_P1;HPM_P2
2021/03/12 00:01:22;;;;;;;74.32;40.53;;;2.30;99.90;;;;;;4916830;29;20051;-67
2021/03/12 00:03:48;;;;;;;65.13;36.55;;;2.30;99.90;;;;;;4919748;29;20099;-65
2021/03/12 00:06:16;;;;;;;73.78;39.25;;;2.30;99.90;;;;;;4918798;28;20441;-68
2021/03/12 00:08:45;;;;;;;69.38;39.70;;;2.30;99.90;;;;;;4918428;29;20059;-66
2021/03/12 00:11:12;;;;;;;76.03;40.42;;;2.30;99.90;;;;;;4919313;29;20134;-65
2021/03/12 00:13:39;;;;;;;79.20;41.08;;;2.30;99.90;;;;;;4920684;29;20066;-66
2021/03/12 00:16:07;;;;;;;69.45;40.42;;;2.30;99.90;;;;;;4912169;29;21560;-67
2021/03/12 00:18:43;;;;;;;74.30;41.08;;;2.40;99.90;;;;;;4917668;29;20084;-66
2021/03/12 00:21:12;;;;;;;64.18;38.40;;;2.30;99.90;;;;;;4917455;29;20159;-65
2021/03/12 00:23:40;;;;;;;75.85;40.22;;;2.40;99.90;;;;;;4919962;29;20133;-65
2021/03/12 00:26:07;;;;;;;75.65;40.50;;;2.40;99.90;;;;;;4914885;29;20048;-64
2021/03/12 00:28:36;;;;;;;80.25;42.72;;;2.40;99.90;;;;;;4903010;29;20052;-66
2021/03/12 00:31:04;;;;;;;67.60;38.83;;;2.40;99.90;;;;;;4903616;29;20051;-66
2021/03/12 00:33:32;;;;;;;81.65;40.33;;;2.40;99.90;;;;;;4905615;29;20097;-64
2021/03/12 00:35:59;;;;;;;73.20;40.15;;;2.40;99.90;;;;;;4915962;29;20071;-67
2021/03/12 00:38:26;;;;;;;71.78;40.40;;;2.40;99.90;;;;;;4921482;29;20090;-66
2021/03/12 00:40:56;;;;;;;73.47;40.47;;;2.40;99.90;;;;;;4901151;29;20055;-64
2021/03/12 00:43:27;;;;;;;79.43;42.70;;;2.40;99.90;;;;;;4917280;29;21684;-64
2021/03/12 00:46:05;;;;;;;77.60;41.05;;;2.50;99.90;;;;;;4902503;29;20070;-65
2021/03/12 00:48:33;;;;;;;73.55;40.38;;;2.50;99.90;;;;;;4916386;28;20151;-64
2021/03/12 00:51:04;;;;;;;73.90;41.13;;;2.50;99.90;;;;;;4918776;28;20052;-65
2021/03/12 00:53:53;;;;;;;72.53;39.58;;;2.50;99.90;;;;;;4906211;29;20055;-68
2021/03/12 00:56:19;;;;;;;66.95;38.55;;;2.50;99.90;;;;;;4916776;29;20110;-66
2021/03/12 00:58:46;;;;;;;72.55;40.88;;;2.50;99.90;;;;;;4917252;29;20744;-68
2021/03/12 01:01:13;;;;;;;67.00;37.85;;;2.50;99.90;;;;;;4902891;29;20052;-66
2021/03/12 01:03:44;;;;;;;77.03;40.17;;;2.50;99.90;;;;;;4902227;29;20059;-64
2021/03/12 01:06:12;;;;;;;66.65;38.80;;;2.50;99.90;;;;;;4918719;29;20120;-65
2021/03/12 01:08:46;;;;;;;72.55;42.08;;;2.50;99.90;;;;;;4916707;29;20142;-65
2021/03/12 01:11:13;;;;;;;68.35;39.25;;;2.50;99.90;;;;;;4920508;28;21352;-65
2021/03/12 01:13:42;;;;;;;66.30;38.08;;;2.50;99.90;;;;;;4918231;29;20060;-65
2021/03/12 01:16:09;;;;;;;68.85;38.60;;;2.50;99.90;;;;;;4899984;29;20766;-68
2021/03/12 01:18:36;;;;;;;68.90;37.25;;;2.50;99.90;;;;;;4917891;29;21098;-65
2021/03/12 01:21:18;;;;;;;65.65;36.58;;;2.50;99.90;;;;;;4916253;29;20103;-65
2021/03/12 01:23:46;;;;;;;64.45;34.97;;;2.50;99.90;;;;;;4917882;29;20114;-68
2021/03/12 01:26:13;;;;;;;60.92;34.47;;;2.50;99.90;;;;;;4914484;29;20111;-66
2021/03/12 01:28:47;;;;;;;69.03;32.78;;;2.50;99.90;;;;;;4920148;28;20063;-65
2021/03/12 01:31:16;;;;;;;54.22;32.72;;;2.60;99.90;;;;;;4916238;28;20063;-65
2021/03/12 01:33:47;;;;;;;60.97;31.67;;;2.50;99.90;;;;;;4919613;29;20051;-65
2021/03/12 01:36:16;;;;;;;53.72;29.98;;;2.50;99.90;;;;;;4916009;29;20528;-64
2021/03/12 01:38:56;;;;;;;59.70;31.48;;;2.50;99.90;;;;;;4918285;29;20087;-67
2021/03/12 01:41:22;;;;;;;57.67;31.92;;;2.50;99.90;;;;;;4903122;29;20048;-65
2021/03/12 01:43:51;;;;;;;58.88;31.45;;;2.50;99.90;;;;;;4904706;29;20051;-67
2021/03/12 01:46:21;;;;;;;;;;;2.50;99.90;;;;;;4919284;29;20059;-66
2021/03/12 01:48:48;;;;;;;53.50;26.63;;;2.50;99.90;;;;;;4917704;29;19930;-66
2021/03/12 01:51:15;;;;;;;48.72;27.98;;;2.60;99.90;;;;;;4919635;29;20060;-64
2021/03/12 01:53:43;;;;;;;53.13;27.60;;;2.50;99.90;;;;;;4919064;28;20071;-67
2021/03/12 01:56:10;;;;;;;45.45;22.70;;;2.50;99.90;;;;;;4911854;29;20063;-64
2021/03/12 01:58:47;;;;;;;41.25;23.13;;;2.50;99.90;;;;;;4904391;29;20063;-65
2021/03/12 02:01:23;;;;;;;38.50;21.10;;;2.50;99.90;;;;;;4915270;29;20063;-65
2021/03/12 02:04:00;;;;;;;36.70;19.63;;;2.60;99.90;;;;;;4914792;28;20062;-66
2021/03/12 02:06:50;;;;;;;34.78;19.27;;;2.60;99.90;;;;;;4909307;29;20052;-67
2021/03/12 02:09:18;;;;;;;37.13;17.38;;;2.60;99.90;;;;;;4903406;29;20075;-68
2021/03/12 02:11:59;;;;;;;40.88;18.17;;;2.70;99.90;;;;;;4917917;29;20160;-68
2021/03/12 02:14:50;;;;;;;35.55;18.05;;;2.70;99.90;;;;;;4901606;29;20052;-66
2021/03/12 02:17:23;;;;;;;31.67;14.23;;;2.80;99.90;;;;;;4900276;29;20075;-68
2021/03/12 02:20:06;;;;;;;21.65;12.20;;;2.80;99.90;;;;;;4917563;29;20059;-70
2021/03/12 02:22:36;;;;;;;26.98;12.02;;;2.90;99.90;;;;;;4899981;29;20087;-69
2021/03/12 02:25:10;;;;;;;25.13;12.32;;;2.90;99.90;;;;;;4902711;29;20484;-68
2021/03/12 02:28:06;;;;;;;31.42;11.27;;;2.90;99.90;;;;;;4912445;29;20044;-66
2021/03/12 02:30:34;;;;;;;30.60;13.40;;;2.90;99.90;;;;;;4918269;29;20127;-67
2021/03/12 02:33:02;;;;;;;39.58;13.60;;;3.00;99.90;;;;;;4901112;29;20048;-66
2021/03/12 02:35:34;;;;;;;34.47;12.30;;;3.00;99.90;;;;;;4913852;29;20227;-66
2021/03/12 02:38:29;;;;;;;38.65;15.55;;;3.10;99.90;;;;;;4913078;29;20047;-69
2021/03/12 02:41:02;;;;;;;43.25;15.98;;;3.10;99.90;;;;;;4919473;28;20054;-66
2021/03/12 02:43:41;;;;;;;39.80;14.35;;;3.10;99.90;;;;;;4930009;28;20055;-66
2021/03/12 02:46:09;;;;;;;38.63;17.52;;;3.20;99.90;;;;;;4917741;29;20058;-65
2021/03/12 02:48:38;;;;;;;38.38;16.38;;;3.20;99.90;;;;;;4918177;29;20837;-69
2021/03/12 02:51:09;;;;;;;34.05;14.73;;;3.20;99.90;;;;;;4916184;29;20074;-66
2021/03/12 02:53:36;;;;;;;;;;;3.30;99.90;;;;;;4903400;29;20469;-66
2021/03/12 02:56:14;;;;;;;37.17;15.85;;;3.30;99.90;;;;;;4910846;29;19930;-67
2021/03/12 02:58:48;;;;;;;34.70;15.88;;;3.40;99.90;;;;;;4913362;29;21050;-66
2021/03/12 03:01:23;;;;;;;39.22;16.83;;;3.40;99.90;;;;;;4910514;29;20110;-67
2021/03/12 03:04:21;;;;;;;42.20;16.52;;;3.40;99.90;;;;;;4906000;29;20051;-66
2021/03/12 03:07:03;;;;;;;45.55;18.17;;;3.50;99.90;;;;;;4901439;29;20055;-68
2021/03/12 03:09:30;;;;;;;52.15;21.73;;;3.40;99.90;;;;;;4902645;29;20067;-67
2021/03/12 03:11:58;;;;;;;51.90;20.50;;;3.50;99.90;;;;;;4899255;29;20130;-68
2021/03/12 03:14:29;;;;;;;54.08;23.30;;;3.50;99.90;;;;;;4898932;29;20063;-65
2021/03/12 03:16:57;;;;;;;50.35;22.83;;;3.50;99.90;;;;;;4907496;29;20516;-68
2021/03/12 03:19:26;;;;;;;55.47;24.02;;;3.50;99.90;;;;;;4901426;29;20063;-71
2021/03/12 03:21:55;;;;;;;55.25;24.95;;;3.50;99.90;;;;;;4911114;29;20048;-66
2021/03/12 03:24:21;;;;;;;57.22;24.10;;;3.50;99.90;;;;;;4916434;29;20055;-68
2021/03/12 03:26:48;;;;;;;48.70;22.50;;;3.50;99.90;;;;;;4904774;29;20407;-70
2021/03/12 03:29:14;;;;;;;53.85;22.70;;;3.50;99.90;;;;;;4901796;29;20527;-67
2021/03/12 03:31:41;;;;;;;59.25;25.20;;;3.50;99.90;;;;;;4919228;28;20574;-67
2021/03/12 03:34:08;;;;;;;43.80;20.83;;;3.50;99.90;;;;;;4919141;29;20564;-69
2021/03/12 03:36:35;;;;;;;51.75;24.73;;;3.50;99.90;;;;;;4919567;29;20475;-68
2021/03/12 03:39:03;;;;;;;59.30;26.20;;;3.50;99.90;;;;;;4904497;29;20159;-68
2021/03/12 03:41:29;;;;;;;59.60;22.85;;;3.50;99.90;;;;;;4916148;29;20101;-67
2021/03/12 03:44:14;;;;;;;48.92;23.23;;;3.50;99.90;;;;;;4916273;29;20413;-70
2021/03/12 03:46:43;;;;;;;40.50;18.92;;;3.40;99.90;;;;;;4934732;28;20052;-70
2021/03/12 03:49:16;;;;;;;36.90;18.02;;;3.50;99.90;;;;;;4932311;28;20056;-67
2021/03/12 03:51:45;;;;;;;40.30;17.67;;;3.50;99.90;;;;;;4919288;29;20496;-68
2021/03/12 03:54:21;;;;;;;35.13;16.50;;;3.40;99.90;;;;;;4900333;29;20075;-68
2021/03/12 03:56:50;;;;;;;37.50;16.60;;;3.50;99.90;;;;;;4915951;29;20055;-68
2021/03/12 03:59:20;;;;;;;28.20;13.77;;;3.50;99.90;;;;;;4904450;29;20608;-68
2021/03/12 04:01:47;;;;;;;25.90;14.18;;;3.50;99.90;;;;;;4914431;29;20138;-68
2021/03/12 04:04:16;;;;;;;25.83;12.75;;;3.50;99.90;;;;;;4897386;29;20052;-67
2021/03/12 04:06:45;;;;;;;23.60;12.65;;;3.50;99.90;;;;;;4933536;28;20090;-69
2021/03/12 04:09:14;;;;;;;24.38;13.40;;;3.40;99.90;;;;;;4901201;29;20211;-68
2021/03/12 04:11:42;;;;;;;23.10;11.95;;;3.50;99.90;;;;;;4918369;29;20677;-68
2021/03/12 04:14:13;;;;;;;20.98;10.70;;;3.40;99.90;;;;;;4902603;29;20051;-67
2021/03/12 04:16:42;;;;;;;15.63;9.23;;;3.50;99.90;;;;;;4898053;29;20227;-66
2021/03/12 04:19:10;;;;;;;17.35;10.07;;;3.50;99.90;;;;;;4901848;29;20146;-66
2021/03/12 04:21:39;;;;;;;15.48;6.60;;;3.50;99.90;;;;;;4918862;29;20055;-66
2021/03/12 04:24:07;;;;;;;12.68;7.18;;;3.50;99.90;;;;;;4897210;29;20466;-67
2021/03/12 04:26:34;;;;;;;14.23;8.38;;;3.50;99.90;;;;;;4918557;28;20457;-67
2021/03/12 04:29:01;;;;;;;17.25;8.70;;;3.50;99.90;;;;;;4914055;29;20063;-67
2021/03/12 04:31:31;;;;;;;19.40;6.07;;;3.50;99.90;;;;;;4917111;29;20043;-66
2021/03/12 04:34:01;;;;;;;12.38;5.07;;;3.50;99.90;;;;;;4916801;29;20135;-66
2021/03/12 04:36:28;;;;;;;12.48;3.90;;;3.50;99.90;;;;;;4916675;29;20052;-66
2021/03/12 04:38:55;;;;;;;8.32;4.25;;;3.50;99.90;;;;;;4905256;29;20059;-67
2021/03/12 04:41:22;;;;;;;8.82;3.80;;;3.50;99.90;;;;;;4919101;29;20090;-67
2021/03/12 04:43:49;;;;;;;7.28;2.97;;;3.50;99.90;;;;;;4913893;29;20052;-71
2021/03/12 04:46:16;;;;;;;6.68;5.03;;;3.50;99.90;;;;;;4914456;28;20424;-69
2021/03/12 04:48:49;;;;;;;10.75;3.97;;;3.50;99.90;;;;;;4915860;29;20082;-68
2021/03/12 04:51:20;;;;;;;8.38;2.40;;;3.50;99.90;;;;;;4933055;28;20061;-66
2021/03/12 04:53:50;;;;;;;5.25;2.28;;;3.50;99.90;;;;;;4919187;28;20166;-68
2021/03/12 04:56:17;;;;;;;4.97;2.03;;;3.50;99.90;;;;;;4913596;29;20051;-72
2021/03/12 04:58:45;;;;;;;4.82;1.65;;;3.50;99.90;;;;;;4917941;29;20056;-69
2021/03/12 05:01:13;;;;;;;13.18;2.10;;;3.50;99.90;;;;;;4916672;29;20107;-66
2021/03/12 05:03:41;;;;;;;7.57;1.48;;;3.50;99.90;;;;;;4913576;29;20084;-69
2021/03/12 05:06:10;;;;;;;2.80;0.88;;;3.50;99.90;;;;;;4900971;29;20062;-66
2021/03/12 05:08:48;;;;;;;3.50;1.20;;;3.50;99.90;;;;;;4917170;29;20162;-67
2021/03/12 05:11:21;;;;;;;6.45;1.08;;;3.50;99.90;;;;;;4899745;29;20508;-65
2021/03/12 05:14:04;;;;;;;5.72;1.40;;;3.50;99.90;;;;;;4915119;29;20880;-67
2021/03/12 05:16:43;;;;;;;10.63;1.92;;;3.50;99.90;;;;;;4914893;29;20051;-69
2021/03/12 05:19:12;;;;;;;4.00;0.98;;;3.40;99.90;;;;;;4917866;29;20436;-67
2021/03/12 05:21:39;;;;;;;8.93;1.70;;;3.50;99.90;;;;;;4915865;29;20135;-66
2021/03/12 05:24:10;;;;;;;8.93;1.50;;;3.50;99.90;;;;;;4901191;29;20076;-68
2021/03/12 05:26:37;;;;;;;4.15;1.67;;;3.50;99.90;;;;;;4917521;29;20155;-67
2021/03/12 05:29:05;;;;;;;12.38;3.10;;;3.50;99.90;;;;;;4915747;28;20047;-70
2021/03/12 05:31:32;;;;;;;12.30;2.00;;;3.50;99.90;;;;;;4915299;29;20091;-70
2021/03/12 05:33:59;;;;;;;7.45;1.45;;;3.50;99.90;;;;;;4914020;29;20043;-69
2021/03/12 05:36:27;;;;;;;12.57;2.13;;;3.50;99.90;;;;;;4897536;29;20051;-68
2021/03/12 05:38:54;;;;;;;7.72;1.77;;;3.50;99.90;;;;;;4930309;28;20226;-68
2021/03/12 05:41:22;;;;;;;8.93;2.03;;;3.50;99.90;;;;;;4916671;28;20061;-68
2021/03/12 05:43:49;;;;;;;16.77;4.38;;;3.50;99.90;;;;;;4915102;29;20130;-66
2021/03/12 05:46:16;;;;;;;12.35;2.25;;;3.60;99.90;;;;;;4913478;29;20169;-68
2021/03/12 05:48:46;;;;;;;13.57;3.75;;;3.60;99.90;;;;;;4903044;29;20062;-68
2021/03/12 05:51:18;;;;;;;17.83;2.45;;;3.60;99.90;;;;;;4911709;29;20146;-70
2021/03/12 05:53:46;;;;;;;9.88;2.25;;;3.60;99.90;;;;;;4915701;29;20047;-68
2021/03/12 05:56:15;;;;;;;5.28;2.33;;;3.60;99.90;;;;;;4912115;29;20060;-66
2021/03/12 05:58:54;;;;;;;16.98;2.22;;;3.60;99.90;;;;;;4916813;29;20070;-68
2021/03/12 06:01:21;;;;;;;16.98;3.65;;;3.60;99.90;;;;;;4898613;29;20724;-68
2021/03/12 06:03:47;;;;;;;7.95;2.70;;;3.60;99.90;;;;;;4899898;29;20063;-68
2021/03/12 06:06:15;;;;;;;18.13;4.80;;;3.60;99.90;;;;;;4915083;29;20077;-67
2021/03/12 06:08:43;;;;;;;10.65;3.95;;;3.70;99.90;;;;;;4903910;29;20059;-66
2021/03/12 06:11:10;;;;;;;18.33;3.92;;;3.60;99.90;;;;;;4912852;29;20511;-68
2021/03/12 06:13:54;;;;;;;14.63;3.92;;;3.70;99.90;;;;;;4900480;29;20048;-65
2021/03/12 06:16:36;;;;;;;11.65;2.50;;;3.70;99.90;;;;;;4912460;29;20590;-69
2021/03/12 06:19:15;;;;;;;10.68;2.60;;;3.70;99.90;;;;;;4898649;29;20052;-67
2021/03/12 06:21:47;;;;;;;17.63;2.78;;;3.70;99.90;;;;;;4902521;29;20142;-65
2021/03/12 06:24:24;;;;;;;17.20;5.45;;;3.70;99.90;;;;;;4912355;29;20138;-65
2021/03/12 06:27:03;;;;;;;24.58;5.40;;;3.70;99.90;;;;;;4916878;29;20421;-66
2021/03/12 06:29:37;;;;;;;10.23;2.90;;;3.80;99.90;;;;;;4914440;29;20059;-68
2021/03/12 06:32:12;;;;;;;11.18;2.75;;;3.80;99.90;;;;;;4895770;29;20052;-68
2021/03/12 06:35:16;;;;;;;10.70;3.03;;;3.80;99.90;;;;;;4897129;29;20052;-65
2021/03/12 06:38:10;;;;;;;11.10;2.47;;;3.80;99.90;;;;;;4892989;29;20055;-71
2021/03/12 06:40:47;;;;;;;15.98;3.40;;;3.80;99.90;;;;;;4902439;29;20070;-66
2021/03/12 06:43:28;;;;;;;18.02;4.68;;;3.80;99.90;;;;;;4912120;29;20055;-67
2021/03/12 06:46:00;;;;;;;19.70;6.03;;;3.80;99.90;;;;;;4910352;29;20070;-66
2021/03/12 06:48:35;;;;;;;29.70;5.20;;;3.80;99.90;;;;;;4912030;29;20060;-65
2021/03/12 06:51:22;;;;;;;28.23;6.28;;;3.80;99.90;;;;;;4896531;29;20144;-68
2021/03/12 06:53:51;;;;;;;12.40;2.95;;;3.80;99.90;;;;;;4915834;29;20056;-66
2021/03/12 06:56:29;;;;;;;15.68;3.90;;;3.80;99.90;;;;;;4891978;29;20060;-66
2021/03/12 06:59:09;;;;;;;13.43;4.93;;;3.80;99.90;;;;;;4913855;28;20048;-68
2021/03/12 07:02:06;;;;;;;24.20;3.42;;;3.80;99.90;;;;;;4911653;29;20135;-67
2021/03/12 07:04:54;;;;;;;15.93;4.57;;;3.80;99.90;;;;;;4917033;29;20070;-68
2021/03/12 07:07:43;;;;;;;13.52;3.70;;;3.90;99.90;;;;;;4904417;29;20046;-67
2021/03/12 07:10:18;;;;;;;22.08;3.70;;;3.90;99.90;;;;;;4913945;29;20052;-69
2021/03/12 07:12:54;;;;;;;22.40;3.78;;;3.90;99.90;;;;;;4915491;29;20054;-67
2021/03/12 07:15:27;;;;;;;19.30;3.50;;;3.90;99.90;;;;;;4904198;29;20060;-66
2021/03/12 07:18:06;;;;;;;17.27;3.47;;;3.90;99.90;;;;;;4899300;29;20143;-68
2021/03/12 07:20:36;;;;;;;15.07;3.42;;;3.90;99.90;;;;;;4916455;29;20055;-66
2021/03/12 07:23:06;;;;;;;14.68;2.97;;;3.90;99.90;;;;;;4917299;29;20044;-69
2021/03/12 07:25:41;;;;;;;14.63;3.65;;;3.90;99.90;;;;;;4914942;28;20052;-68
2021/03/12 07:28:12;;;;;;;18.33;3.97;;;4.00;99.90;;;;;;4900896;29;20048;-67
2021/03/12 07:31:05;;;;;;;17.30;3.75;;;4.00;99.90;;;;;;4898564;29;20075;-70
2021/03/12 07:33:35;;;;;;;18.00;3.63;;;4.00;99.90;;;;;;4915577;29;20071;-67
2021/03/12 07:36:06;;;;;;;18.35;4.22;;;4.10;99.90;;;;;;4897149;29;20584;-68
2021/03/12 07:38:49;;;;;;;20.52;5.97;;;4.10;99.90;;;;;;4897921;29;20057;-69
2021/03/12 07:41:22;;;;;;;23.00;4.75;;;4.10;99.90;;;;;;4898671;29;20059;-67
2021/03/12 07:44:17;;;;;;;15.70;3.33;;;4.10;99.90;;;;;;4895295;29;20052;-69
2021/03/12 07:47:05;;;;;;;19.83;3.83;;;4.10;99.90;;;;;;4895184;29;20063;-67
2021/03/12 07:49:35;;;;;;;18.75;3.67;;;4.10;99.90;;;;;;4901153;29;20553;-72
2021/03/12 07:52:55;;;;;;;16.65;4.00;;;4.10;99.90;;;;;;4881483;29;20057;-69
2021/03/12 07:55:37;;;;;;;21.95;4.95;;;4.20;99.90;;;;;;4859017;29;20065;-67
2021/03/12 07:58:50;;;;;;;29.00;5.80;;;4.20;99.90;;;;;;4831280;29;20060;-71
2021/03/12 08:01:21;;;;;;;19.63;3.35;;;4.20;99.90;;;;;;4833951;29;21498;-69
2021/03/12 08:03:51;;;;;;;14.13;3.65;;;4.30;99.90;;;;;;4830515;29;20073;-70
2021/03/12 08:06:36;;;;;;;17.55;5.07;;;4.40;99.90;;;;;;4807770;29;20049;-68
2021/03/12 08:09:32;;;;;;;16.27;4.28;;;4.40;99.90;;;;;;4811706;29;20595;-71
2021/03/12 08:12:29;;;;;;;20.70;4.35;;;4.50;99.90;;;;;;4809920;29;20052;-74
2021/03/12 08:15:26;;;;;;;17.75;4.50;;;4.60;99.90;;;;;;4815505;29;20061;-70
2021/03/12 08:18:08;;;;;;;15.60;3.47;;;4.60;99.90;;;;;;4821517;29;20489;-72
2021/03/12 08:20:43;;;;;;;23.23;7.43;;;4.60;99.90;;;;;;4826655;29;20100;-72
2021/03/12 08:23:34;;;;;;;16.23;4.63;;;4.60;99.90;;;;;;4828343;29;20056;-69
2021/03/12 08:26:43;;;;;;;18.25;3.70;;;4.70;99.90;;;;;;4827347;29;20045;-71
2021/03/12 08:29:38;;;;;;;16.15;4.40;;;4.70;99.90;;;;;;4810744;29;20058;-71
2021/03/12 08:32:41;;;;;;;17.75;3.15;;;4.70;99.90;;;;;;4827261;29;20060;-71
2021/03/12 08:35:38;;;;;;;26.35;5.70;;;4.70;99.90;;;;;;4810159;29;20088;-69
2021/03/12 08:38:35;;;;;;;13.45;4.93;;;4.70;99.90;;;;;;4807635;29;20056;-69
2021/03/12 08:41:41;;;;;;;16.10;4.38;;;4.80;99.90;;;;;;4801403;29;20056;-72
2021/03/12 08:44:40;;;;;;;14.88;3.35;;;4.80;99.90;;;;;;4801649;29;20061;-68
2021/03/12 08:47:19;;;;;;;21.92;3.63;;;4.80;99.90;;;;;;4804147;29;21568;-69
2021/03/12 08:49:57;;;;;;;24.33;4.47;;;4.80;99.90;;;;;;4823198;29;20417;-70
2021/03/12 08:52:32;;;;;;;23.30;4.72;;;4.90;99.90;;;;;;4817457;29;20061;-70
2021/03/12 08:55:16;;;;;;;28.70;3.47;;;4.90;99.90;;;;;;4822548;29;20049;-69
2021/03/12 08:57:47;;;;;;;13.93;4.10;;;4.90;99.90;;;;;;4807830;29;20048;-68
2021/03/12 09:00:17;;;;;;;16.13;4.97;;;4.90;99.90;;;;;;4826171;29;20482;-70
2021/03/12 09:03:24;;;;;;;22.90;4.70;;;4.90;99.90;;;;;;4804754;29;20699;-72
2021/03/12 09:06:11;;;;;;;20.42;2.97;;;5.00;99.90;;;;;;4825308;29;20059;-69
2021/03/12 09:08:58;;;;;;;14.90;5.43;;;5.00;99.90;;;;;;4805148;29;20188;-70
2021/03/12 09:11:55;;;;;;;11.82;3.90;;;5.00;99.90;;;;;;4823945;29;21123;-69
2021/03/12 09:14:28;;;;;;;20.92;5.18;;;5.10;99.90;;;;;;4829787;29;20056;-70
2021/03/12 09:16:59;;;;;;;16.02;4.35;;;5.10;99.90;;;;;;4806264;29;20052;-70
2021/03/12 09:19:30;;;;;;;15.52;3.30;;;5.20;99.90;;;;;;4801496;29;20074;-70
2021/03/12 09:22:02;;;;;;;14.93;6.03;;;5.20;99.90;;;;;;4825267;29;20057;-71
2021/03/12 09:24:37;;;;;;;15.57;4.05;;;5.30;99.90;;;;;;4805911;29;20688;-71
2021/03/12 09:27:04;;;;;;;12.43;3.28;;;5.30;99.90;;;;;;4838231;29;20321;-69
2021/03/12 09:29:49;;;;;;;15.15;4.15;;;5.30;99.90;;;;;;4829826;29;20064;-68
2021/03/12 09:32:19;;;;;;;11.07;3.20;;;5.40;99.90;;;;;;4841114;29;20163;-66
2021/03/12 09:34:55;;;;;;;20.85;3.47;;;5.50;99.90;;;;;;4866185;29;20400;-71
2021/03/12 09:37:42;;;;;;;14.60;4.22;;;5.50;99.90;;;;;;4888819;29;20059;-69
2021/03/12 09:40:41;;;;;;;20.00;4.25;;;5.60;99.90;;;;;;4878613;29;20461;-70
2021/03/12 09:43:18;;;;;;;12.75;3.28;;;5.60;99.90;;;;;;4896290;29;20135;-65
2021/03/12 09:46:05;;;;;;;12.18;5.90;;;5.60;99.90;;;;;;4898571;29;20061;-66
2021/03/12 09:48:39;;;;;;;11.65;3.45;;;5.60;99.90;;;;;;4901985;29;20156;-68
2021/03/12 09:51:14;;;;;;;14.45;3.78;;;5.60;99.90;;;;;;4916805;29;20059;-68
2021/03/12 09:53:43;;;;;;;15.15;2.58;;;5.60;99.90;;;;;;4916436;29;20067;-67
2021/03/12 09:56:23;;;;;;;12.55;4.15;;;5.60;99.90;;;;;;4899705;29;20374;-66
2021/03/12 09:59:02;;;;;;;17.55;3.20;;;5.60;99.90;;;;;;4900413;29;20051;-67
2021/03/12 10:01:44;;;;;;;22.88;6.25;;;5.60;99.90;;;;;;4917224;29;20755;-68
2021/03/12 10:04:43;;;;;;;19.00;4.35;;;5.70;99.90;;;;;;4898038;29;20489;-66
2021/03/12 10:07:38;;;;;;;17.30;3.75;;;5.70;99.90;;;;;;4916698;29;20511;-66
2021/03/12 10:10:28;;;;;;;9.55;3.50;;;5.70;99.90;;;;;;4916817;29;20079;-66
2021/03/12 10:13:04;;;;;;;9.43;3.67;;;5.80;99.90;;;;;;4917364;29;20066;-67
2021/03/12 10:15:38;;;;;;;13.38;4.63;;;5.80;99.90;;;;;;4918175;29;20051;-70
2021/03/12 10:18:20;;;;;;;11.30;2.90;;;5.90;99.90;;;;;;4925571;28;20915;-65
2021/03/12 10:21:25;;;;;;;13.48;4.00;;;6.00;99.90;;;;;;4918567;29;20527;-65
2021/03/12 10:23:52;;;;;;;8.98;2.83;;;6.00;99.90;;;;;;4916537;29;20416;-72
2021/03/12 10:26:22;;;;;;;10.85;2.72;;;6.00;99.90;;;;;;4915085;29;20079;-68
2021/03/12 10:28:49;;;;;;;17.58;3.13;;;6.00;99.90;;;;;;4918062;29;20072;-65
2021/03/12 10:31:15;;;;;;;10.20;2.92;;;6.00;99.90;;;;;;4917416;29;20059;-70
2021/03/12 10:33:48;;;;;;;15.02;3.33;;;6.00;99.90;;;;;;4916904;29;20062;-66
2021/03/12 10:36:17;;;;;;;14.75;3.35;;;6.10;99.90;;;;;;4916557;29;20098;-66
2021/03/12 10:38:47;;;;;;;18.50;3.63;;;6.00;99.90;;;;;;4915040;29;20134;-68
2021/03/12 10:41:20;;;;;;;13.25;3.50;;;6.10;99.90;;;;;;4916415;29;20190;-66
2021/03/12 10:43:57;;;;;;;;;;;6.10;99.90;;;;;;4917921;29;20147;-68
2021/03/12 10:46:23;;;;;;;15.48;4.40;;;6.00;99.90;;;;;;4913606;29;19948;-66
2021/03/12 10:48:51;;;;;;;20.30;3.53;;;6.10;99.90;;;;;;4917675;29;20090;-68
2021/03/12 10:51:19;;;;;;;14.63;3.05;;;6.20;99.90;;;;;;4913184;29;20203;-67
2021/03/12 10:53:48;;;;;;;19.95;3.75;;;6.20;99.90;;;;;;4902914;29;20044;-66
2021/03/12 10:56:16;;;;;;;15.75;3.95;;;6.20;99.90;;;;;;4916982;29;20415;-67
2021/03/12 10:58:42;;;;;;;15.88;4.18;;;6.20;99.90;;;;;;4914678;29;20143;-67
2021/03/12 11:01:30;;;;;;;14.05;2.80;;;6.30;99.90;;;;;;4913921;29;21506;-65
2021/03/12 11:03:58;;;;;;;21.70;5.38;;;6.30;99.90;;;;;;4913757;29;20064;-72
2021/03/12 11:06:37;;;;;;;11.05;3.28;;;6.30;99.90;;;;;;4913357;29;20055;-67
2021/03/12 11:09:13;;;;;;;15.07;5.80;;;6.30;99.90;;;;;;4916620;29;20501;-67
2021/03/12 11:11:43;;;;;;;14.55;4.55;;;6.30;99.90;;;;;;4912521;29;20173;-65
2021/03/12 11:14:10;;;;;;;20.05;4.38;;;6.30;99.90;;;;;;4912093;29;20078;-66
2021/03/12 11:16:37;;;;;;;13.45;4.20;;;6.30;99.90;;;;;;4913554;29;20063;-68
2021/03/12 11:19:05;;;;;;;19.27;4.40;;;6.30;99.90;;;;;;4914237;28;20153;-66
2021/03/12 11:21:32;;;;;;;15.73;3.38;;;6.30;99.90;;;;;;4916331;29;20079;-68
2021/03/12 11:23:59;;;;;;;13.52;2.60;;;6.40;99.90;;;;;;4916923;29;20162;-66
2021/03/12 11:26:26;;;;;;;9.95;4.13;;;6.40;99.90;;;;;;4913706;29;20052;-66
2021/03/12 11:28:52;;;;;;;13.88;4.68;;;6.40;99.90;;;;;;4917969;29;20059;-65
2021/03/12 11:31:19;;;;;;;14.98;4.68;;;6.50;99.90;;;;;;4914818;28;20063;-69
2021/03/12 11:33:47;;;;;;;12.02;4.18;;;6.50;99.90;;;;;;4903886;29;20111;-66
2021/03/12 11:36:14;;;;;;;14.57;3.20;;;6.50;99.90;;;;;;4913150;29;20482;-69
2021/03/12 11:38:41;;;;;;;10.85;5.10;;;6.50;99.90;;;;;;4911509;29;20047;-70
2021/03/12 11:41:07;;;;;;;19.90;3.60;;;6.50;99.90;;;;;;4915890;29;20048;-67
2021/03/12 11:43:34;;;;;;;15.55;4.25;;;6.50;99.90;;;;;;4916941;29;20537;-65
2021/03/12 11:46:01;;;;;;;17.02;4.40;;;6.40;99.90;;;;;;4916172;29;20500;-70
2021/03/12 11:48:27;;;;;;;15.80;4.00;;;6.30;99.90;;;;;;4917998;29;20075;-67
2021/03/12 11:50:55;;;;;;;14.20;5.72;;;6.20;99.90;;;;;;4918609;29;20467;-67
2021/03/12 11:53:21;;;;;;;16.08;3.05;;;6.20;99.90;;;;;;4922139;29;20062;-66
2021/03/12 11:55:48;;;;;;;29.42;4.05;;;6.10;99.90;;;;;;4906662;29;20051;-66
2021/03/12 11:58:15;;;;;;;14.57;3.33;;;6.10;99.90;;;;;;4915772;29;20111;-70
2021/03/12 12:00:42;;;;;;;15.40;3.00;;;6.10;99.90;;;;;;4904591;29;20079;-67
2021/03/12 12:03:09;;;;;;;15.85;3.03;;;6.10;99.90;;;;;;4918430;28;20595;-67
2021/03/12 12:05:36;;;;;;;18.10;4.15;;;6.10;99.90;;;;;;4915518;29;20772;-68
2021/03/12 12:08:03;;;;;;;9.00;3.45;;;6.20;99.90;;;;;;4916542;29;20622;-70
2021/03/12 12:10:29;;;;;;;15.93;5.03;;;6.20;99.90;;;;;;4918001;29;20058;-67
2021/03/12 12:12:56;;;;;;;22.60;4.25;;;6.30;99.90;;;;;;4914224;29;20111;-67
2021/03/12 12:15:26;;;;;;;11.20;3.65;;;6.30;99.90;;;;;;4917999;28;20110;-69
2021/03/12 12:17:59;;;;;;;20.17;3.03;;;6.40;99.90;;;;;;4911040;29;20134;-68
2021/03/12 12:20:27;;;;;;;15.38;3.08;;;6.40;99.90;;;;;;4918731;29;20043;-67
2021/03/12 12:22:53;;;;;;;22.10;3.40;;;6.40;99.90;;;;;;4917515;29;20515;-70
2021/03/12 12:25:20;;;;;;;19.63;4.80;;;6.40;99.90;;;;;;4916673;29;20776;-66
2021/03/12 12:27:46;;;;;;;20.60;3.10;;;6.40;99.90;;;;;;4915634;29;20064;-70
2021/03/12 12:30:13;;;;;;;9.48;3.25;;;6.40;99.90;;;;;;4903186;29;20418;-69
2021/03/12 12:32:44;;;;;;;17.92;4.57;;;6.40;99.90;;;;;;4914898;28;20103;-67
2021/03/12 12:35:11;;;;;;;12.13;3.67;;;6.40;99.90;;;;;;4919078;29;21265;-68
2021/03/12 12:37:38;;;;;;;19.08;3.95;;;6.40;99.90;;;;;;4915998;29;20044;-71
2021/03/12 12:40:07;;;;;;;13.75;3.00;;;6.50;99.90;;;;;;4912150;29;20055;-66
2021/03/12 12:42:34;;;;;;;15.60;4.18;;;6.50;99.90;;;;;;4917227;29;20500;-71
2021/03/12 12:45:03;;;;;;;12.65;3.50;;;6.50;99.90;;;;;;4906178;29;20110;-66
2021/03/12 12:47:30;;;;;;;11.63;2.42;;;6.50;99.90;;;;;;4916374;29;20058;-70
2021/03/12 12:49:56;;;;;;;15.20;2.67;;;6.50;99.90;;;;;;4915196;29;20059;-73
2021/03/12 12:52:26;;;;;;;12.30;3.13;;;6.50;99.90;;;;;;4916005;29;20158;-69
2021/03/12 12:54:53;;;;;;;11.35;3.22;;;6.50;99.90;;;;;;4918996;29;20068;-65
2021/03/12 12:57:21;;;;;;;20.00;3.97;;;6.60;99.90;;;;;;4917663;29;20111;-67
2021/03/12 12:59:48;;;;;;;28.60;3.55;;;6.60;99.90;;;;;;4913331;29;21083;-67
2021/03/12 13:02:16;;;;;;;15.30;3.58;;;6.60;99.90;;;;;;4916979;29;20550;-67
2021/03/12 13:04:43;;;;;;;15.13;3.58;;;6.60;99.90;;;;;;4917426;29;20134;-66
2021/03/12 13:07:10;;;;;;;12.52;3.45;;;6.70;99.90;;;;;;4917001;29;20048;-70
2021/03/12 13:09:36;;;;;;;17.75;3.78;;;6.70;99.90;;;;;;4918473;29;20056;-66
2021/03/12 13:12:03;;;;;;;18.63;3.45;;;6.70;99.90;;;;;;4914631;29;20070;-65
2021/03/12 13:14:30;;;;;;;25.55;4.60;;;6.80;99.90;;;;;;4915821;29;20623;-66
2021/03/12 13:16:56;;;;;;;14.98;3.03;;;6.90;99.90;;;;;;4915844;29;20052;-67
2021/03/12 13:19:23;;;;;;;19.40;4.45;;;6.80;99.90;;;;;;4915944;29;20059;-65